Terminal Aerodrome Forecast
Issued by NWS

Home | Current Version | Previous Version | Text Only | Print | Product List | Glossary On
Versions: 1 2 3 4 5 6 7 8 9 10 11 12 13 14 15 16 17
633
FTUS41 KCLE 231438 AAA
TAFFDY
TAF AMD
KFDY 231438Z 2315/2412 VRB03KT P6SM SCT020 BKN060
     FM231600 27005KT P6SM VCTS SCT030CB BKN060
     FM232000 28009KT P6SM SCT030 BKN120
      TEMPO 2320/2323 4SM -TSRA BKN030CB=

USA.gov is the U.S. government's official web portal to all federal, state and local government web resources and services.